sensor_id;sensor_type;location;lat;lon;timestamp;pressure;altitude;pressure_sealevel;temperature;humidity
66176;BME280;52977;44.816;20.538;2023-02-19T00:01:25;100115.53;;;12.05;57.13
66176;BME280;52977;44.816;20.538;2023-02-19T00:03:54;100117.31;;;12.01;57.52
66176;BME280;52977;44.816;20.538;2023-02-19T00:06:23;100106.66;;;11.91;57.51
66176;BME280;52977;44.816;20.538;2023-02-19T00:08:49;100099.25;;;11.83;57.27
66176;BME280;52977;44.816;20.538;2023-02-19T00:11:18;100120.53;;;12.03;57.47
66176;BME280;52977;44.816;20.538;2023-02-19T00:13:47;100132.44;;;12.07;57.44
66176;BME280;52977;44.816;20.538;2023-02-19T00:16:21;100120.84;;;12.10;57.19
66176;BME280;52977;44.816;20.538;2023-02-19T00:18:48;100108.78;;;12.03;57.29
66176;BME280;52977;44.816;20.538;2023-02-19T00:21:15;100132.13;;;12.18;57.16
66176;BME280;52977;44.816;20.538;2023-02-19T00:23:42;100095.91;;;11.94;57.23
66176;BME280;52977;44.816;20.538;2023-02-19T00:26:11;100138.22;;;12.23;57.23
66176;BME280;52977;44.816;20.538;2023-02-19T00:28:39;100140.50;;;12.21;57.27
66176;BME280;52977;44.816;20.538;2023-02-19T00:33:40;100150.31;;;12.13;57.61
66176;BME280;52977;44.816;20.538;2023-02-19T00:36:07;100151.75;;;12.02;57.61
66176;BME280;52977;44.816;20.538;2023-02-19T00:38:35;100159.31;;;12.05;57.83
66176;BME280;52977;44.816;20.538;2023-02-19T00:41:02;100160.59;;;12.08;57.98
66176;BME280;52977;44.816;20.538;2023-02-19T00:48:48;100090.22;;;11.56;58.10
66176;BME280;52977;44.816;20.538;2023-02-19T00:51:15;100068.94;;;11.35;58.25
66176;BME280;52977;44.816;20.538;2023-02-19T00:53:41;100144.63;;;11.84;58.76
66176;BME280;52977;44.816;20.538;2023-02-19T00:56:07;100162.81;;;11.88;58.96
66176;BME280;52977;44.816;20.538;2023-02-19T00:58:33;100162.38;;;11.95;58.81
66176;BME280;52977;44.816;20.538;2023-02-19T01:01:00;100141.25;;;11.78;59.03
66176;BME280;52977;44.816;20.538;2023-02-19T01:03:28;100164.31;;;12.03;58.93
66176;BME280;52977;44.816;20.538;2023-02-19T01:05:54;100125.31;;;11.89;58.66
66176;BME280;52977;44.816;20.538;2023-02-19T01:08:20;100140.63;;;11.99;58.58
66176;BME280;52977;44.816;20.538;2023-02-19T01:10:47;100133.91;;;12.05;58.57
66176;BME280;52977;44.816;20.538;2023-02-19T01:13:13;100147.09;;;12.11;58.68
66176;BME280;52977;44.816;20.538;2023-02-19T01:15:40;100145.47;;;12.10;58.72
66176;BME280;52977;44.816;20.538;2023-02-19T01:18:06;100151.28;;;12.09;58.61
66176;BME280;52977;44.816;20.538;2023-02-19T01:20:32;100090.53;;;11.72;58.91
66176;BME280;52977;44.816;20.538;2023-02-19T01:22:59;100153.69;;;12.10;58.72
66176;BME280;52977;44.816;20.538;2023-02-19T01:25:25;100102.78;;;11.74;58.74
66176;BME280;52977;44.816;20.538;2023-02-19T01:27:51;100126.44;;;11.88;58.73
66176;BME280;52977;44.816;20.538;2023-02-19T01:30:17;100139.50;;;12.00;58.95
66176;BME280;52977;44.816;20.538;2023-02-19T01:32:44;100144.97;;;12.00;58.90
66176;BME280;52977;44.816;20.538;2023-02-19T01:35:10;100156.44;;;12.10;58.91
66176;BME280;52977;44.816;20.538;2023-02-19T01:37:36;100153.22;;;12.08;58.99
66176;BME280;52977;44.816;20.538;2023-02-19T01:40:02;100142.91;;;12.05;58.85
66176;BME280;52977;44.816;20.538;2023-02-19T01:42:29;100139.94;;;11.93;59.11
66176;BME280;52977;44.816;20.538;2023-02-19T01:47:51;100129.84;;;11.85;59.01
66176;BME280;52977;44.816;20.538;2023-02-19T01:50:19;100148.03;;;11.98;59.48
66176;BME280;52977;44.816;20.538;2023-02-19T01:52:46;100150.31;;;11.96;59.46
66176;BME280;52977;44.816;20.538;2023-02-19T01:55:12;100103.91;;;11.73;59.32
66176;BME280;52977;44.816;20.538;2023-02-19T01:57:44;100090.84;;;11.53;59.22
66176;BME280;52977;44.816;20.538;2023-02-19T02:00:15;100149.31;;;11.92;59.74
66176;BME280;52977;44.816;20.538;2023-02-19T02:02:44;100046.94;;;11.32;59.31
66176;BME280;52977;44.816;20.538;2023-02-19T02:08:03;100130.44;;;11.82;59.64
66176;BME280;52977;44.816;20.538;2023-02-19T02:10:47;100151.53;;;11.90;59.33
66176;BME280;52977;44.816;20.538;2023-02-19T02:13:14;100151.53;;;11.90;59.51
66176;BME280;52977;44.816;20.538;2023-02-19T02:15:53;100160.41;;;11.87;59.47
66176;BME280;52977;44.816;20.538;2023-02-19T02:19:00;100074.41;;;11.44;59.42
66176;BME280;52977;44.816;20.538;2023-02-19T02:21:45;100146.56;;;11.92;59.43
66176;BME280;52977;44.816;20.538;2023-02-19T02:27:38;100139.81;;;11.80;59.73
66176;BME280;52977;44.816;20.538;2023-02-19T02:30:26;100139.63;;;11.77;59.83
66176;BME280;52977;44.816;20.538;2023-02-19T02:35:47;100112.41;;;11.63;59.79
66176;BME280;52977;44.816;20.538;2023-02-19T02:38:17;100142.09;;;11.96;59.40
66176;BME280;52977;44.816;20.538;2023-02-19T02:40:44;100146.94;;;11.99;59.15
66176;BME280;52977;44.816;20.538;2023-02-19T02:43:11;100137.59;;;12.00;59.20
66176;BME280;52977;44.816;20.538;2023-02-19T02:45:38;100064.31;;;11.53;59.38
66176;BME280;52977;44.816;20.538;2023-02-19T02:48:44;100137.44;;;11.96;59.17
66176;BME280;52977;44.816;20.538;2023-02-19T02:54:01;100143.72;;;12.06;58.72
66176;BME280;52977;44.816;20.538;2023-02-19T02:56:49;100102.63;;;11.71;58.74
66176;BME280;52977;44.816;20.538;2023-02-19T02:59:19;100111.31;;;11.73;58.94
66176;BME280;52977;44.816;20.538;2023-02-19T03:02:05;100075.91;;;11.50;58.80
66176;BME280;52977;44.816;20.538;2023-02-19T03:10:42;100130.84;;;11.98;58.55
66176;BME280;52977;44.816;20.538;2023-02-19T03:13:13;100136.31;;;12.06;57.68
66176;BME280;52977;44.816;20.538;2023-02-19T03:16:11;100114.06;;;11.90;58.17
66176;BME280;52977;44.816;20.538;2023-02-19T03:18:58;100066.41;;;11.56;58.08
66176;BME280;52977;44.816;20.538;2023-02-19T03:22:03;100123.91;;;12.00;58.34
66176;BME280;52977;44.816;20.538;2023-02-19T03:24:40;100126.94;;;11.99;57.99
66176;BME280;52977;44.816;20.538;2023-02-19T03:27:27;100120.03;;;12.01;57.87
66176;BME280;52977;44.816;20.538;2023-02-19T03:29:57;100125.34;;;12.06;57.69
66176;BME280;52977;44.816;20.538;2023-02-19T03:32:30;100067.50;;;11.46;57.87
66176;BME280;52977;44.816;20.538;2023-02-19T03:35:02;100069.00;;;11.53;58.22
66176;BME280;52977;44.816;20.538;2023-02-19T03:37:35;100115.34;;;11.75;58.27
66176;BME280;52977;44.816;20.538;2023-02-19T03:40:04;100126.59;;;11.74;58.20
66176;BME280;52977;44.816;20.538;2023-02-19T03:46:21;100064.44;;;11.31;58.06
66176;BME280;52977;44.816;20.538;2023-02-19T03:50:59;100126.75;;;11.69;57.82
66176;BME280;52977;44.816;20.538;2023-02-19T03:53:41;100147.56;;;11.96;57.46
66176;BME280;52977;44.816;20.538;2023-02-19T03:56:28;100123.03;;;11.73;57.61
66176;BME280;52977;44.816;20.538;2023-02-19T03:58:59;100141.44;;;11.90;57.37
66176;BME280;52977;44.816;20.538;2023-02-19T04:01:51;100135.31;;;11.85;57.87
66176;BME280;52977;44.816;20.538;2023-02-19T04:06:55;100143.00;;;11.83;57.69
66176;BME280;52977;44.816;20.538;2023-02-19T04:09:27;100061.25;;;11.37;57.69
66176;BME280;52977;44.816;20.538;2023-02-19T04:12:02;100126.28;;;11.75;57.79
66176;BME280;52977;44.816;20.538;2023-02-19T04:14:34;100090.34;;;11.51;57.58
66176;BME280;52977;44.816;20.538;2023-02-19T04:17:07;100135.91;;;11.64;58.07
66176;BME280;52977;44.816;20.538;2023-02-19T04:19:36;100138.66;;;11.64;58.04
66176;BME280;52977;44.816;20.538;2023-02-19T04:22:05;100125.44;;;11.57;57.82
66176;BME280;52977;44.816;20.538;2023-02-19T04:24:42;100129.66;;;11.72;58.22
66176;BME280;52977;44.816;20.538;2023-02-19T04:27:09;100084.88;;;11.33;58.29
66176;BME280;52977;44.816;20.538;2023-02-19T04:29:36;100118.66;;;11.55;58.14
66176;BME280;52977;44.816;20.538;2023-02-19T04:32:02;100086.63;;;11.38;57.70
66176;BME280;52977;44.816;20.538;2023-02-19T04:34:28;100123.03;;;11.56;58.01
66176;BME280;52977;44.816;20.538;2023-02-19T04:36:54;100112.72;;;11.53;57.99
66176;BME280;52977;44.816;20.538;2023-02-19T04:39:20;100086.47;;;11.34;58.30
66176;BME280;52977;44.816;20.538;2023-02-19T04:41:46;100151.84;;;11.71;58.27
66176;BME280;52977;44.816;20.538;2023-02-19T04:44:12;100130.59;;;11.59;57.90
66176;BME280;52977;44.816;20.538;2023-02-19T04:46:40;100138.13;;;11.62;58.17
66176;BME280;52977;44.816;20.538;2023-02-19T04:49:06;100092.56;;;11.31;58.58
66176;BME280;52977;44.816;20.538;2023-02-19T04:51:33;100136.88;;;11.68;58.36
66176;BME280;52977;44.816;20.538;2023-02-19T04:53:59;100136.84;;;11.59;59.05
66176;BME280;52977;44.816;20.538;2023-02-19T04:56:25;100034.44;;;10.99;58.96
66176;BME280;52977;44.816;20.538;2023-02-19T04:58:50;100123.63;;;11.44;58.87
66176;BME280;52977;44.816;20.538;2023-02-19T05:01:16;100149.72;;;11.59;59.28
66176;BME280;52977;44.816;20.538;2023-02-19T05:03:42;100085.66;;;11.25;59.57
66176;BME280;52977;44.816;20.538;2023-02-19T05:06:10;100131.03;;;11.43;59.42
66176;BME280;52977;44.816;20.538;2023-02-19T05:08:37;100096.72;;;11.28;59.43
66176;BME280;52977;44.816;20.538;2023-02-19T05:11:04;100120.28;;;11.47;59.69
66176;BME280;52977;44.816;20.538;2023-02-19T05:13:31;100123.94;;;11.42;59.35
66176;BME280;52977;44.816;20.538;2023-02-19T05:16:02;100131.03;;;11.43;59.74
66176;BME280;52977;44.816;20.538;2023-02-19T05:18:29;100139.09;;;11.49;59.34
66176;BME280;52977;44.816;20.538;2023-02-19T05:20:56;100142.94;;;11.48;58.79
66176;BME280;52977;44.816;20.538;2023-02-19T05:23:24;100104.13;;;11.28;59.10
66176;BME280;52977;44.816;20.538;2023-02-19T05:25:51;100048.56;;;10.92;59.43
66176;BME280;52977;44.816;20.538;2023-02-19T05:28:17;100107.84;;;11.32;59.06
66176;BME280;52977;44.816;20.538;2023-02-19T05:30:49;100119.53;;;11.15;59.76
66176;BME280;52977;44.816;20.538;2023-02-19T05:33:17;100103.78;;;11.21;59.36
66176;BME280;52977;44.816;20.538;2023-02-19T05:35:46;100078.88;;;11.14;59.08
66176;BME280;52977;44.816;20.538;2023-02-19T05:38:14;100086.47;;;11.34;58.85
66176;BME280;52977;44.816;20.538;2023-02-19T05:40:40;100091.78;;;11.39;58.70
66176;BME280;52977;44.816;20.538;2023-02-19T05:43:07;100104.16;;;11.45;58.56
66176;BME280;52977;44.816;20.538;2023-02-19T05:45:34;100055.72;;;11.11;58.34
66176;BME280;52977;44.816;20.538;2023-02-19T05:48:01;100106.91;;;11.45;58.29
66176;BME280;52977;44.816;20.538;2023-02-19T05:50:28;100085.34;;;11.35;58.21
66176;BME280;52977;44.816;20.538;2023-02-19T05:52:55;100090.50;;;11.37;58.40
66176;BME280;52977;44.816;20.538;2023-02-19T05:55:21;100081.59;;;11.14;58.34
66176;BME280;52977;44.816;20.538;2023-02-19T05:57:47;100108.63;;;11.24;58.65
66176;BME280;52977;44.816;20.538;2023-02-19T06:00:16;100107.84;;;11.32;58.48
66176;BME280;52977;44.816;20.538;2023-02-19T06:02:43;100081.28;;;11.15;58.45
66176;BME280;52977;44.816;20.538;2023-02-19T06:05:09;100052.44;;;11.00;58.30
66176;BME280;52977;44.816;20.538;2023-02-19T06:07:36;100124.63;;;11.57;57.99
66176;BME280;52977;44.816;20.538;2023-02-19T06:10:05;100124.78;;;11.52;57.97
66176;BME280;52977;44.816;20.538;2023-02-19T06:12:32;100102.31;;;11.15;58.31
66176;BME280;52977;44.816;20.538;2023-02-19T06:14:58;100088.97;;;11.13;58.31
66176;BME280;52977;44.816;20.538;2023-02-19T06:17:24;100108.50;;;11.29;58.25
66176;BME280;52977;44.816;20.538;2023-02-19T06:19:51;100132.91;;;11.34;58.53
66176;BME280;52977;44.816;20.538;2023-02-19T06:22:17;100136.84;;;11.51;58.32
66176;BME280;52977;44.816;20.538;2023-02-19T06:24:43;100132.47;;;11.50;58.38
66176;BME280;52977;44.816;20.538;2023-02-19T06:27:09;100138.91;;;11.54;58.48
66176;BME280;52977;44.816;20.538;2023-02-19T06:29:35;100124.13;;;11.46;58.40
66176;BME280;52977;44.816;20.538;2023-02-19T06:32:05;100129.13;;;11.53;58.61
66176;BME280;52977;44.816;20.538;2023-02-19T06:34:32;100127.50;;;11.52;58.55
66176;BME280;52977;44.816;20.538;2023-02-19T06:36:59;100113.00;;;11.42;58.50
66176;BME280;52977;44.816;20.538;2023-02-19T06:39:26;100070.66;;;11.14;58.62
66176;BME280;52977;44.816;20.538;2023-02-19T06:41:56;100078.25;;;11.34;58.46
66176;BME280;52977;44.816;20.538;2023-02-19T06:44:23;100102.25;;;11.46;58.66
66176;BME280;52977;44.816;20.538;2023-02-19T06:46:50;100067.78;;;11.19;58.38
66176;BME280;52977;44.816;20.538;2023-02-19T06:49:16;100076.81;;;11.28;57.88
66176;BME280;52977;44.816;20.538;2023-02-19T06:51:43;100076.00;;;11.27;58.28
66176;BME280;52977;44.816;20.538;2023-02-19T06:54:11;100137.84;;;11.72;57.75
66176;BME280;52977;44.816;20.538;2023-02-19T06:56:39;100108.44;;;11.78;57.08
66176;BME280;52977;44.816;20.538;2023-02-19T06:59:10;100113.09;;;11.86;57.19
66176;BME280;52977;44.816;20.538;2023-02-19T07:01:37;100108.75;;;11.85;57.04
66176;BME280;52977;44.816;20.538;2023-02-19T07:04:04;100087.66;;;11.77;56.54
66176;BME280;52977;44.816;20.538;2023-02-19T07:06:31;100110.38;;;11.86;56.64
66176;BME280;52977;44.816;20.538;2023-02-19T07:08:58;100087.81;;;11.72;56.32
66176;BME280;52977;44.816;20.538;2023-02-19T07:11:25;100110.69;;;11.85;56.76
66176;BME280;52977;44.816;20.538;2023-02-19T07:13:55;100116.63;;;11.87;56.55
66176;BME280;52977;44.816;20.538;2023-02-19T07:16:21;100091.97;;;11.69;56.88
66176;BME280;52977;44.816;20.538;2023-02-19T07:18:47;100076.03;;;11.54;56.47
66176;BME280;52977;44.816;20.538;2023-02-19T07:21:13;100130.66;;;11.94;56.33
66176;BME280;52977;44.816;20.538;2023-02-19T07:23:41;100071.41;;;11.72;55.85
66176;BME280;52977;44.816;20.538;2023-02-19T07:26:09;100079.47;;;11.77;55.75
66176;BME280;52977;44.816;20.538;2023-02-19T07:28:35;100109.25;;;12.13;55.02
66176;BME280;52977;44.816;20.538;2023-02-19T07:31:02;100121.66;;;12.20;55.46
66176;BME280;52977;44.816;20.538;2023-02-19T07:33:29;100106.84;;;12.12;55.50
66176;BME280;52977;44.816;20.538;2023-02-19T07:35:56;100064.84;;;11.90;55.33
66176;BME280;52977;44.816;20.538;2023-02-19T07:38:25;100059.53;;;11.76;55.40
66176;BME280;52977;44.816;20.538;2023-02-19T07:40:56;100127.47;;;12.18;55.22
66176;BME280;52977;44.816;20.538;2023-02-19T07:43:23;100111.03;;;12.18;55.19
66176;BME280;52977;44.816;20.538;2023-02-19T07:45:51;100117.63;;;12.00;55.96
66176;BME280;52977;44.816;20.538;2023-02-19T07:48:17;100127.28;;;12.14;55.58
66176;BME280;52977;44.816;20.538;2023-02-19T07:50:54;100098.81;;;12.16;55.00
66176;BME280;52977;44.816;20.538;2023-02-19T07:53:21;100117.94;;;12.24;55.22
66176;BME280;52977;44.816;20.538;2023-02-19T07:55:48;100093.50;;;12.10;55.16
66176;BME280;52977;44.816;20.538;2023-02-19T07:58:14;100044.72;;;11.86;55.05
66176;BME280;52977;44.816;20.538;2023-02-19T08:00:40;100060.34;;;12.03;54.58
66176;BME280;52977;44.816;20.538;2023-02-19T08:03:07;100115.50;;;12.40;54.63
66176;BME280;52977;44.816;20.538;2023-02-19T08:05:36;100116.34;;;12.41;54.49
66176;BME280;52977;44.816;20.538;2023-02-19T08:08:07;100112.47;;;12.33;54.77
66176;BME280;52977;44.816;20.538;2023-02-19T08:10:34;100098.13;;;12.27;54.70
66176;BME280;52977;44.816;20.538;2023-02-19T08:13:19;100106.84;;;12.38;54.77
66176;BME280;52977;44.816;20.538;2023-02-19T08:15:52;100072.41;;;12.02;54.90
66176;BME280;52977;44.816;20.538;2023-02-19T08:18:23;100049.22;;;12.00;54.93
66176;BME280;52977;44.816;20.538;2023-02-19T08:20:50;100113.59;;;12.32;55.10
66176;BME280;52977;44.816;20.538;2023-02-19T08:23:16;100073.53;;;12.19;55.02
66176;BME280;52977;44.816;20.538;2023-02-19T08:25:43;100101.84;;;12.23;55.50
66176;BME280;52977;44.816;20.538;2023-02-19T08:28:10;100089.44;;;12.34;54.69
66176;BME280;52977;44.816;20.538;2023-02-19T08:30:40;100090.09;;;12.31;55.13
66176;BME280;52977;44.816;20.538;2023-02-19T08:33:10;100041.03;;;12.08;54.63
66176;BME280;52977;44.816;20.538;2023-02-19T08:35:37;100062.72;;;12.31;54.57
66176;BME280;52977;44.816;20.538;2023-02-19T08:38:05;100080.88;;;12.44;54.79
66176;BME280;52977;44.816;20.538;2023-02-19T08:40:32;100076.34;;;12.48;54.38
66176;BME280;52977;44.816;20.538;2023-02-19T08:43:12;100081.53;;;12.41;54.81
66176;BME280;52977;44.816;20.538;2023-02-19T08:45:40;100077.97;;;12.50;54.51
66176;BME280;52977;44.816;20.538;2023-02-19T08:48:07;100062.97;;;12.56;54.27
66176;BME280;52977;44.816;20.538;2023-02-19T08:50:33;100049.97;;;12.44;54.38
66176;BME280;52977;44.816;20.538;2023-02-19T08:53:00;100062.47;;;12.62;54.33
66176;BME280;52977;44.816;20.538;2023-02-19T08:55:26;100058.28;;;12.65;54.36
66176;BME280;52977;44.816;20.538;2023-02-19T08:57:51;100061.50;;;12.67;54.53
66176;BME280;52977;44.816;20.538;2023-02-19T09:00:17;100040.31;;;12.46;54.67
66176;BME280;52977;44.816;20.538;2023-02-19T09:02:44;100066.31;;;12.70;54.39
66176;BME280;52977;44.816;20.538;2023-02-19T09:05:10;100059.72;;;12.71;54.25
66176;BME280;52977;44.816;20.538;2023-02-19T09:07:38;100054.41;;;12.66;54.72
66176;BME280;52977;44.816;20.538;2023-02-19T09:10:04;100050.56;;;12.67;54.80
66176;BME280;52977;44.816;20.538;2023-02-19T09:12:31;99970.66;;;12.18;54.53
66176;BME280;52977;44.816;20.538;2023-02-19T09:14:59;100049.53;;;12.80;54.63
66176;BME280;52977;44.816;20.538;2023-02-19T09:17:26;100045.47;;;12.87;54.65
66176;BME280;52977;44.816;20.538;2023-02-19T09:19:52;100039.34;;;12.90;54.54
66176;BME280;52977;44.816;20.538;2023-02-19T09:22:17;100030.00;;;12.82;54.74
66176;BME280;52977;44.816;20.538;2023-02-19T09:24:44;100039.97;;;12.95;54.83
66176;BME280;52977;44.816;20.538;2023-02-19T09:27:19;100042.03;;;12.98;54.45
66176;BME280;52977;44.816;20.538;2023-02-19T09:29:46;99967.50;;;12.45;55.26
66176;BME280;52977;44.816;20.538;2023-02-19T09:32:12;100039.91;;;13.04;54.75
66176;BME280;52977;44.816;20.538;2023-02-19T09:34:39;100005.13;;;12.96;54.29
66176;BME280;52977;44.816;20.538;2023-02-19T09:37:05;99973.88;;;12.67;55.03
66176;BME280;52977;44.816;20.538;2023-02-19T09:39:33;100040.84;;;13.08;54.67
66176;BME280;52977;44.816;20.538;2023-02-19T09:42:12;100037.59;;;13.15;54.87
66176;BME280;52977;44.816;20.538;2023-02-19T09:44:43;100018.81;;;13.05;54.37
66176;BME280;52977;44.816;20.538;2023-02-19T09:47:22;100031.09;;;13.20;54.47
66176;BME280;52977;44.816;20.538;2023-02-19T09:49:55;100026.69;;;13.36;54.27
66176;BME280;52977;44.816;20.538;2023-02-19T09:52:43;99984.25;;;13.12;54.04
66176;BME280;52977;44.816;20.538;2023-02-19T09:55:31;100030.81;;;13.42;53.87
66176;BME280;52977;44.816;20.538;2023-02-19T09:58:02;100009.16;;;13.28;53.80
66176;BME280;52977;44.816;20.538;2023-02-19T10:00:33;100024.16;;;13.22;54.55
66176;BME280;52977;44.816;20.538;2023-02-19T10:03:18;100015.28;;;12.95;55.27
66176;BME280;52977;44.816;20.538;2023-02-19T10:05:46;100045.31;;;13.22;55.05
66176;BME280;52977;44.816;20.538;2023-02-19T10:08:16;100025.63;;;13.20;55.22
66176;BME280;52977;44.816;20.538;2023-02-19T10:10:43;100033.31;;;13.35;55.09
66176;BME280;52977;44.816;20.538;2023-02-19T10:13:20;100022.94;;;13.41;54.73
66176;BME280;52977;44.816;20.538;2023-02-19T10:15:55;100018.41;;;13.45;54.98
66176;BME280;52977;44.816;20.538;2023-02-19T10:18:24;100014.06;;;13.44;54.62
66176;BME280;52977;44.816;20.538;2023-02-19T10:20:53;100012.25;;;13.48;54.49
66176;BME280;52977;44.816;20.538;2023-02-19T10:23:20;100014.34;;;13.51;54.52
66176;BME280;52977;44.816;20.538;2023-02-19T10:26:04;100003.16;;;13.56;54.50
66176;BME280;52977;44.816;20.538;2023-02-19T10:28:33;99955.78;;;13.26;54.46
66176;BME280;52977;44.816;20.538;2023-02-19T10:31:02;99994.88;;;13.65;54.58
66176;BME280;52977;44.816;20.538;2023-02-19T10:33:28;100002.41;;;13.68;54.21
66176;BME280;52977;44.816;20.538;2023-02-19T10:35:57;99997.53;;;13.74;54.48
66176;BME280;52977;44.816;20.538;2023-02-19T10:38:27;99954.13;;;13.55;54.64
66176;BME280;52977;44.816;20.538;2023-02-19T10:41:02;99985.13;;;13.89;54.15
66176;BME280;52977;44.816;20.538;2023-02-19T10:43:33;99985.59;;;13.91;53.41
66176;BME280;52977;44.816;20.538;2023-02-19T10:46:14;99985.03;;;13.97;53.91
66176;BME280;52977;44.816;20.538;2023-02-19T10:48:49;99972.78;;;13.95;53.28
66176;BME280;52977;44.816;20.538;2023-02-19T10:51:17;99974.31;;;14.05;53.34
66176;BME280;52977;44.816;20.538;2023-02-19T10:53:48;99976.13;;;14.00;52.45
66176;BME280;52977;44.816;20.538;2023-02-19T10:58:49;99931.84;;;13.90;52.92
66176;BME280;52977;44.816;20.538;2023-02-19T11:01:20;99962.56;;;14.29;52.55
66176;BME280;52977;44.816;20.538;2023-02-19T11:04:36;99933.97;;;14.17;52.48
66176;BME280;52977;44.816;20.538;2023-02-19T11:06:36;99928.94;;;14.19;51.60
66176;BME280;52977;44.816;20.538;2023-02-19T11:09:02;99964.34;;;14.46;51.31
66176;BME280;52977;44.816;20.538;2023-02-19T11:13:55;99959.19;;;14.44;50.52
66176;BME280;52977;44.816;20.538;2023-02-19T11:16:40;99941.66;;;14.49;51.13
66176;BME280;52977;44.816;20.538;2023-02-19T11:19:24;99870.00;;;14.05;49.65
66176;BME280;52977;44.816;20.538;2023-02-19T11:21:51;99959.22;;;14.69;49.22
66176;BME280;52977;44.816;20.538;2023-02-19T11:24:23;99945.59;;;14.73;49.08
66176;BME280;52977;44.816;20.538;2023-02-19T11:26:51;99890.75;;;14.51;48.70
66176;BME280;52977;44.816;20.538;2023-02-19T11:29:20;99902.19;;;14.53;47.73
66176;BME280;52977;44.816;20.538;2023-02-19T11:31:49;99913.88;;;14.75;47.74
66176;BME280;52977;44.816;20.538;2023-02-19T11:37:18;99943.97;;;14.96;47.12
66176;BME280;52977;44.816;20.538;2023-02-19T11:39:48;99936.50;;;14.97;47.33
66176;BME280;52977;44.816;20.538;2023-02-19T11:48:11;99931.34;;;15.08;47.02
66176;BME280;52977;44.816;20.538;2023-02-19T12:00:34;99879.28;;;14.86;47.93
66176;BME280;52977;44.816;20.538;2023-02-19T12:13:09;99901.91;;;14.96;48.33
66176;BME280;52977;44.816;20.538;2023-02-19T12:16:24;99893.44;;;15.01;48.45
66176;BME280;52977;44.816;20.538;2023-02-19T12:39:24;99874.72;;;14.78;49.75
66176;BME280;52977;44.816;20.538;2023-02-19T12:45:07;99857.72;;;15.01;49.45
66176;BME280;52977;44.816;20.538;2023-02-19T12:47:41;99860.66;;;15.08;49.48
66176;BME280;52977;44.816;20.538;2023-02-19T12:50:20;99806.88;;;14.95;49.60
66176;BME280;52977;44.816;20.538;2023-02-19T12:52:52;99812.44;;;15.11;49.30
66176;BME280;52977;44.816;20.538;2023-02-19T12:55:26;99727.53;;;14.52;49.74
66176;BME280;52977;44.816;20.538;2023-02-19T12:57:54;99846.41;;;15.31;49.38
66176;BME280;52977;44.816;20.538;2023-02-19T13:11:15;99826.56;;;14.97;49.69
66176;BME280;52977;44.816;20.538;2023-02-19T13:13:47;99799.63;;;14.74;49.78
66176;BME280;52977;44.816;20.538;2023-02-19T13:16:16;99826.56;;;14.97;50.18
66176;BME280;52977;44.816;20.538;2023-02-19T13:18:55;99827.16;;;14.90;50.30
66176;BME280;52977;44.816;20.538;2023-02-19T13:21:27;99832.38;;;14.79;50.83
66176;BME280;52977;44.816;20.538;2023-02-19T13:24:20;99824.13;;;14.79;50.89
66176;BME280;52977;44.816;20.538;2023-02-19T13:33:10;99834.84;;;14.84;50.25
66176;BME280;52977;44.816;20.538;2023-02-19T13:38:17;99837.75;;;15.04;48.76
66176;BME280;52977;44.816;20.538;2023-02-19T13:40:58;99826.56;;;14.97;48.19
66176;BME280;52977;44.816;20.538;2023-02-19T13:43:34;99819.53;;;15.12;48.04
66176;BME280;52977;44.816;20.538;2023-02-19T13:46:13;99806.19;;;14.98;48.14
66176;BME280;52977;44.816;20.538;2023-02-19T13:48:41;99825.81;;;15.12;48.11
66176;BME280;52977;44.816;20.538;2023-02-19T14:04:54;99816.41;;;15.42;47.93
66176;BME280;52977;44.816;20.538;2023-02-19T14:07:46;99814.47;;;15.42;48.01
66176;BME280;52977;44.816;20.538;2023-02-19T14:13:10;99764.06;;;14.94;48.68
66176;BME280;52977;44.816;20.538;2023-02-19T14:15:42;99835.13;;;15.36;48.33
66176;BME280;52977;44.816;20.538;2023-02-19T14:18:45;99834.69;;;15.34;48.55
66176;BME280;52977;44.816;20.538;2023-02-19T14:21:37;99816.91;;;15.15;48.87
66176;BME280;52977;44.816;20.538;2023-02-19T14:24:04;99814.75;;;15.09;49.37
66176;BME280;52977;44.816;20.538;2023-02-19T14:26:34;99811.53;;;15.07;49.02
66176;BME280;52977;44.816;20.538;2023-02-19T14:29:00;99803.41;;;14.82;49.21
66176;BME280;52977;44.816;20.538;2023-02-19T14:31:32;99838.75;;;14.83;49.64
66176;BME280;52977;44.816;20.538;2023-02-19T14:34:19;99832.66;;;14.90;49.31
66176;BME280;52977;44.816;20.538;2023-02-19T14:36:51;99759.84;;;14.43;49.54
66176;BME280;52977;44.816;20.538;2023-02-19T14:41:52;99836.91;;;14.88;49.73
66176;BME280;52977;44.816;20.538;2023-02-19T14:44:25;99791.19;;;14.42;50.04
66176;BME280;52977;44.816;20.538;2023-02-19T14:47:10;99842.72;;;14.98;50.60
66176;BME280;52977;44.816;20.538;2023-02-19T14:49:58;99812.34;;;15.07;50.16
66176;BME280;52977;44.816;20.538;2023-02-19T14:52:33;99833.97;;;15.37;48.88
66176;BME280;52977;44.816;20.538;2023-02-19T14:55:14;99732.91;;;14.61;47.93
66176;BME280;52977;44.816;20.538;2023-02-19T14:57:44;99745.88;;;14.48;48.19
66176;BME280;52977;44.816;20.538;2023-02-19T15:02:49;99846.47;;;15.06;48.18
66176;BME280;52977;44.816;20.538;2023-02-19T15:05:23;99840.63;;;15.36;48.57
66176;BME280;52977;44.816;20.538;2023-02-19T15:07:51;99835.28;;;15.27;47.81
66176;BME280;52977;44.816;20.538;2023-02-19T15:10:19;99845.53;;;15.43;47.78
66176;BME280;52977;44.816;20.538;2023-02-19T15:12:58;99810.28;;;15.04;47.78
66176;BME280;52977;44.816;20.538;2023-02-19T15:15:27;99849.28;;;15.50;47.80
66176;BME280;52977;44.816;20.538;2023-02-19T15:17:55;99811.41;;;15.15;47.40